Station: Busselton Airport  

  Atmospheric Gas Attenuation - ITU Rec 676-11   ----------------- dB/100km -----------------
Date Time Temp RH % AH g/m3 Dew Point Wind Direction Speed kph Gust kph Barometer mB Rainfall Since 9am 24GHz 47GHz 76GHz 122GHz 134GHz 241GHz
10/05 23:10 9.5 82 7.47 6.6 15 17 1022.8 0 17.4 25.7 37.7 98.8 89.3 305.8
10/05 23:00 9.3 85 7.64 6.9 11 13 1022.9 0 17.7 26.0 38.5 100.9 91.8 314.7
10/05 22:50 9.5 87 7.92 7.4 11 13 1023 0 18.3 26.4 39.6 103.7 95.4 327.3
10/05 22:40 9.2 91 8.13 7.8 13 13 1023 0 18.8 26.9 40.6 106.5 98.7 338.8
10/05 22:30 8.6 93 7.99 7.5 11 13 1023.1 0 18.5 26.8 40.4 105.8 97.5 334.6
10/05 22:20 8.3 94 7.93 7.4 11 13 1023.2 0 18.4 26.8 40.3 105.5 97.1 333.0
10/05 22:10 8 92 7.61 6.8 9 9 1023.3 0 17.7 26.3 39.1 102.3 93.0 318.6
10/05 22:00 7.8 92 7.51 6.6 9 9 1023.4 0 17.5 26.2 38.8 101.4 91.9 314.6
10/05 21:50 7.4 89 7.08 5.7 9 11 1023.5 0 16.6 25.6 37.1 97.1 86.4 295.4
10/05 21:40 8.9 90 7.89 7.4 0 0 1023.7 0 18.3 26.6 39.8 104.3 95.8 328.6
10/05 21:30 8.8 88 7.66 6.9 4 7 1023.8 0 17.8 26.2 38.9 101.9 92.8 317.9
10/05 21:20 9.3 92 8.27 8.1 7 7 1023.7 0 19.1 27.1 41.2 108.0 100.6 345.4
10/05 21:10 9.1 93 8.25 8 9 9 1023.7 0 19.1 27.1 41.2 108.1 100.6 345.3
10/05 21:00 9 91 8.03 7.6 7 9 1023.6 0 18.6 26.8 40.4 105.7 97.6 335.0
10/05 20:50 9 89 7.85 7.3 9 9 1023.5 0 18.2 26.5 39.6 103.7 95.1 326.2
10/05 20:40 8.7 86 7.44 6.5 7 9 1023.6 0 17.3 25.9 38.0 99.5 89.8 307.7
10/05 20:30 9.3 85 7.64 6.9 7 9 1023.6 0 17.7 26.0 38.6 101.0 91.9 314.9
10/05 20:20 10.1 89 8.42 8.4 7 7 1023.6 0 19.4 27.1 41.4 108.6 101.6 349.1
10/05 20:10 9.8 85 7.89 7.4 9 9 1023.6 0 18.2 26.3 39.4 103.1 94.7 324.8
10/05 20:00 10.3 84 8.05 7.7 7 9 1023.6 0 18.6 26.4 39.8 104.2 96.3 330.4
10/05 19:50 11.6 86 8.94 9.3 7 7 1023.6 0 20.4 27.5 42.8 112.3 106.8 367.5
10/05 19:40 11.3 86 8.77 9 7 9 1023.5 0 20.1 27.3 42.3 110.8 104.8 360.6
10/05 19:30 11 85 8.51 8.6 7 9 1023.5 0 19.5 27.0 41.3 108.4 101.7 349.4
10/05 19:20 11.4 82 8.42 8.4 7 9 1023.5 0 19.3 26.7 40.7 106.8 99.9 343.3
10/05 19:10 11.7 85 8.89 9.3 9 9 1023.4 0 20.3 27.4 42.5 111.6 106.0 364.5
10/05 19:00 11.9 83 8.79 9.1 11 13 1023.3 0 20.1 27.2 42.0 110.2 104.3 358.7
10/05 18:50 12.9 86 9.69 10.6 11 11 1023.3 0 22.0 28.4 45.3 118.9 115.4 397.6
10/05 18:40 12.6 85 9.4 10.1 11 13 1023.3 0 21.4 28.0 44.2 116.0 111.7 384.9
10/05 18:30 12.8 83 9.3 10 11 13 1023.5 0 21.1 27.7 43.7 114.6 110.1 379.1
10/05 18:20 12.7 84 9.35 10.1 9 9 1023.6 0 21.2 27.9 43.9 115.4 110.9 382.1
10/05 18:10 13 79 8.96 9.4 7 9 1023.6 0 20.4 27.1 42.2 110.6 105.2 361.9
10/05 18:00 15 70 8.98 9.6 4 6 1023.5 0 20.3 26.5 41.2 108.0 102.7 353.7
10/05 17:50 16.6 73 10.31 11.7 6 6 1023.4 0 23.1 28.2 45.7 120.2 118.3 408.3
10/05 17:40 16.5 73 10.25 11.6 7 7 1023.3 0 23.0 28.2 45.5 119.6 117.6 406.0
10/05 17:30 16.9 71 10.21 11.6 9 11 1023.2 0 22.8 28.0 45.1 118.6 116.5 402.0
10/05 17:20 16.9 69 9.92 11.2 9 11 1023.2 0 22.2 27.5 43.9 115.4 112.6 388.4
10/05 17:10 17.5 67 9.99 11.3 11 13 1023.2 0 22.3 27.4 43.9 115.3 112.6 388.7
10/05 17:00 18.2 64 9.95 11.3 13 15 1023.1 0 22.2 27.1 43.3 113.8 111.1 383.4
10/05 16:50 19 60 9.78 11.1 13 15 1023.2 0 21.8 26.6 42.3 110.9 107.8 371.8
10/05 16:40 19.3 60 9.95 11.3 13 15 1023.2 0 22.2 26.8 42.8 112.3 109.5 378.1
10/05 16:30 19.6 58 9.79 11.1 13 17 1023.3 0 21.8 26.5 42.0 110.2 107.1 369.5
10/05 16:20 19.8 58 9.91 11.3 13 15 1023.3 0 22.1 26.6 42.3 111.2 108.3 374.0
10/05 16:10 19.9 57 9.79 11.1 15 17 1023.3 0 21.8 26.4 41.8 109.8 106.7 368.1
10/05 16:00 20 57 9.85 11.2 17 22 1023.3 0 21.9 26.4 42.0 110.3 107.3 370.3
10/05 15:50 20.2 56 9.79 11.1 15 17 1023.2 0 21.8 26.3 41.7 109.4 106.3 366.7
10/05 15:40 20.5 55 9.79 11.2 17 19 1023.2 0 21.8 26.2 41.5 109.0 105.9 365.3
10/05 15:30 20.5 54 9.61 10.9 20 28 1023.1 0 21.4 25.9 40.8 107.1 103.6 357.4
10/05 15:20 20.3 52 9.14 10.1 22 24 1023.1 0 20.4 25.3 39.1 102.6 98.0 337.7
10/05 15:10 20.5 51 9.07 10 20 24 1023.1 0 20.2 25.1 38.8 101.7 96.8 333.8
10/05 15:00 20.3 52 9.14 10.1 22 32 1023 0 20.4 25.2 39.1 102.6 98.0 337.7
10/05 14:50 20.5 53 9.43 10.6 24 28 1023 0 21.0 25.6 40.1 105.3 101.3 349.4
10/05 14:40 20.3 54 9.5 10.7 26 30 1023 0 21.2 25.8 40.5 106.2 102.4 353.4
10/05 14:30 20.7 55 9.9 11.3 24 32 1023 0 22.0 26.3 41.8 109.8 107.0 369.2
10/05 14:20 20.1 55 9.56 10.8 26 32 1023.1 0 21.3 26.0 40.8 107.1 103.5 356.9
10/05 14:10 20.4 55 9.73 11.1 20 28 1023.3 0 21.6 26.1 41.3 108.5 105.2 363.2
10/05 14:00 20.5 52 9.25 10.3 24 32 1023.3 0 20.6 25.4 39.5 103.5 99.1 341.7
10/05 13:50 20.2 52 9.09 10 28 32 1023.4 0 20.3 25.2 39.0 102.3 97.5 336.0
10/05 13:40 20.3 52 9.14 10.1 28 32 1023.5 0 20.4 25.3 39.1 102.6 98.0 337.8
10/05 13:30 20.4 52 9.2 10.2 28 35 1023.6 0 20.5 25.3 39.3 103.1 98.6 340.0
10/05 13:20 20.7 51 9.18 10.2 22 28 1023.7 0 20.5 25.2 39.1 102.6 98.0 337.9
10/05 13:10 20.6 52 9.31 10.4 26 35 1023.8 0 20.7 25.5 39.7 104.0 99.8 344.0
10/05 13:00 19.8 53 9.05 10 24 32 1023.9 0 20.2 25.3 39.1 102.4 97.5 336.1
10/05 12:50 19.9 54 9.28 10.3 28 33 1024 0 20.7 25.6 39.9 104.6 100.3 345.8
10/05 12:40 19.7 53 9 9.9 30 37 1024.1 0 20.1 25.2 38.9 102.1 97.0 334.4
10/05 12:30 20.1 55 9.56 10.8 26 35 1024.3 0 21.3 26.0 40.9 107.3 103.6 357.3
10/05 12:20 19.4 55 9.18 10.1 26 33 1024.5 0 20.5 25.6 39.8 104.3 99.7 343.7
10/05 12:10 19.8 56 9.56 10.8 24 32 1024.7 0 21.3 26.1 41.0 107.7 104.0 358.8
10/05 12:00 19.4 55 9.18 10.1 26 35 1024.9 0 20.5 25.6 39.8 104.4 99.7 343.8
10/05 11:50 19.1 54 8.85 9.6 28 32 1025 0 19.8 25.2 38.7 101.4 96.0 330.6
10/05 11:40 19.2 55 9.07 9.9 30 35 1025.1 0 20.3 25.5 39.5 103.5 98.6 339.8
10/05 11:30 18.9 53 8.59 9.1 28 39 1025.2 0 19.3 24.9 37.8 99.0 93.0 320.1
10/05 11:20 19 53 8.64 9.2 28 33 1025.4 0 19.4 24.9 38.0 99.4 93.5 321.9
10/05 11:10 18.7 54 8.64 9.2 28 32 1025.6 0 19.4 25.0 38.1 99.8 93.9 323.2
10/05 11:00 18.9 54 8.75 9.4 28 37 1025.5 0 19.6 25.1 38.4 100.7 95.0 327.1
10/05 10:50 19 55 8.96 9.8 26 30 1025.6 0 20.1 25.4 39.2 102.7 97.5 336.0
10/05 10:40 18.8 56 9.02 9.8 24 30 1025.6 0 20.2 25.6 39.5 103.6 98.5 339.5
10/05 10:30 18.2 56 8.7 9.3 28 39 1025.6 0 19.6 25.3 38.6 101.1 95.2 327.8
10/05 10:20 18.2 54 8.39 8.7 32 37 1025.7 0 18.9 24.8 37.4 97.9 91.4 314.3
10/05 10:10 18.2 55 8.55 9 24 30 1025.7 0 19.3 25.0 38.0 99.6 93.4 321.3
10/05 10:00 18.1 56 8.65 9.2 20 32 1025.9 0 19.5 25.2 38.4 100.7 94.7 326.1
10/05 09:50 17.5 56 8.35 8.6 24 28 1025.9 0 18.9 24.9 37.6 98.4 91.7 315.3
10/05 09:40 16.8 58 8.29 8.5 15 19 1026 0 18.8 25.0 37.7 98.7 91.8 315.5
10/05 09:30 16 58 7.9 7.7 19 22 1026 0 18.0 24.6 36.6 95.6 87.7 301.3
10/05 09:20 15.4 61 8.01 7.9 17 22 1026 0 18.2 25.0 37.3 97.5 89.8 308.5
10/05 09:10 14.5 63 7.84 7.5 17 19 1026.1 0 17.9 25.0 37.0 96.8 88.7 304.4
10/05 09:00 14 63 7.6 7.1 17 20 1026.1 0 17.4 24.7 36.3 95.0 86.2 295.5
10/05 08:50 13.6 65 7.65 7.2 11 13 1026.2 0 17.6 24.9 36.7 96.0 87.2 299.2
10/05 08:40 12.9 66 7.44 6.7 13 15 1026.2 0 17.1 24.8 36.2 94.6 85.3 292.4
10/05 08:30 12.4 67 7.32 6.5 11 15 1026.3 0 16.9 24.7 35.9 94.0 84.3 288.8
10/05 08:20 11.9 69 7.31 6.4 11 13 1026.3 0 16.9 24.8 36.1 94.4 84.7 290.1
10/05 08:10 11.1 71 7.15 6 11 11 1026.3 0 16.6 24.8 35.9 93.7 83.5 285.7
10/05 08:00 10.1 75 7.09 5.9 9 11 1026.2 0 16.5 25.0 36.1 94.2 83.8 286.6
10/05 07:50 8.8 80 6.97 5.5 9 11 1026.1 0 16.3 25.2 36.2 94.5 83.6 285.6
10/05 07:40 7.2 81 6.36 4.2 9 9 1026.1 0 15.1 24.6 34.4 89.7 77.0 262.6
10/05 07:30 7 79 6.12 3.6 7 9 1026 0 14.6 24.3 33.5 87.4 74.0 252.0
10/05 07:20 7.2 79 6.2 3.8 9 9 1025.9 0 14.7 24.3 33.7 88.0 74.9 255.0
10/05 07:10 7.2 81 6.36 4.2 9 9 1025.8 0 15.1 24.6 34.4 89.7 77.0 262.5
10/05 07:00 6.9 83 6.39 4.2 9 11 1025.7 0 15.2 24.7 34.6 90.4 77.7 264.9
10/05 06:50 6 81 5.88 3 9 11 1025.6 0 14.1 24.1 32.9 85.8 71.7 243.8
10/05 06:40 6.2 80 5.89 3 9 11 1025.5 0 14.1 24.1 32.9 85.7 71.7 243.7

Last Refresh: 11-May-2026 00:52:07

Bureau of Meteorology